Time;durP1;ratioP1;P1;durP2;ratioP2;P2;SDS_P1;SDS_P2;PMS_P1;PMS_P2;Temp;Humidity;BMP_temperature;BMP_pressure;BME280_temperature;BME280_humidity;BME280_pressure;Samples;Min_cycle;Max_cycle;Signal;HPM_P1;HPM_P2
2022/08/22 00:02:12;;;;;;;10.98;3.80;;;16.90;99.90;;;;;;4965840;28;20303;-91
2022/08/22 00:04:55;;;;;;;9.80;3.95;;;16.90;99.90;;;;;;4965884;28;20089;-91
2022/08/22 00:07:31;;;;;;;8.68;3.38;;;16.80;99.90;;;;;;4963952;28;20047;-91
2022/08/22 00:10:02;;;;;;;8.10;3.60;;;16.90;99.90;;;;;;4950449;28;20046;-92
2022/08/22 00:12:42;;;;;;;11.57;3.70;;;16.90;99.90;;;;;;4951036;28;20046;-91
2022/08/22 00:15:15;;;;;;;9.88;4.32;;;16.80;99.90;;;;;;4950388;28;20058;-91
2022/08/22 00:18:05;;;;;;;8.95;3.85;;;16.80;99.90;;;;;;4967832;28;20105;-91
2022/08/22 00:20:43;;;;;;;8.52;3.67;;;16.70;99.90;;;;;;4965866;28;20110;-90
2022/08/22 00:23:30;;;;;;;8.77;3.63;;;16.70;99.90;;;;;;4968222;28;20369;-91
2022/08/22 00:26:16;;;;;;;8.77;4.00;;;16.70;99.90;;;;;;4964414;28;20046;-91
2022/08/22 00:28:49;;;;;;;8.48;4.20;;;16.60;99.90;;;;;;4967175;28;20065;-91
2022/08/22 00:31:21;;;;;;;9.10;4.03;;;16.60;99.90;;;;;;4968038;28;20043;-91
2022/08/22 00:33:49;;;;;;;8.52;4.22;;;16.60;99.90;;;;;;4966206;28;20047;-91
2022/08/22 00:36:39;;;;;;;10.18;4.07;;;16.60;99.90;;;;;;4966233;28;20051;-90
2022/08/22 00:39:12;;;;;;;9.07;4.10;;;16.60;99.90;;;;;;4964752;28;20054;-91
2022/08/22 00:41:54;;;;;;;8.13;4.10;;;16.60;99.90;;;;;;4966825;28;20294;-91
2022/08/22 00:44:39;;;;;;;10.32;3.97;;;16.50;99.90;;;;;;4966750;28;20047;-91
2022/08/22 00:47:18;;;;;;;10.45;4.45;;;16.60;99.90;;;;;;4949529;28;20133;-90
2022/08/22 00:50:11;;;;;;;9.50;4.15;;;16.50;99.90;;;;;;4948878;28;20134;-91
2022/08/22 00:53:04;;;;;;;10.50;4.45;;;16.50;99.90;;;;;;4949204;28;20050;-90
2022/08/22 00:56:01;;;;;;;9.23;4.07;;;16.50;99.90;;;;;;4967126;28;20114;-91
2022/08/22 00:58:51;;;;;;;10.30;4.75;;;16.40;99.90;;;;;;4966053;28;20246;-88
2022/08/22 01:01:32;;;;;;;9.57;4.32;;;16.40;99.90;;;;;;4949834;28;20042;-90
2022/08/22 01:04:14;;;;;;;9.55;4.55;;;16.50;99.90;;;;;;4979235;28;20039;-91
2022/08/22 01:06:55;;;;;;;9.55;4.47;;;16.40;99.90;;;;;;4963470;28;20126;-91
2022/08/22 01:09:58;;;;;;;9.68;4.60;;;16.50;99.90;;;;;;4969906;28;20106;-90
2022/08/22 01:12:32;;;;;;;10.68;5.00;;;16.50;99.90;;;;;;4953643;28;20400;-91
2022/08/22 01:15:08;;;;;;;11.07;5.38;;;16.40;99.90;;;;;;4966929;28;20082;-90
2022/08/22 01:17:49;;;;;;;11.00;5.50;;;16.40;99.90;;;;;;4969176;28;20062;-91
2022/08/22 01:20:55;;;;;;;11.30;5.32;;;16.40;99.90;;;;;;4968815;28;20042;-90
2022/08/22 01:23:48;;;;;;;9.02;4.90;;;16.40;99.90;;;;;;4970010;28;20053;-91
2022/08/22 01:26:45;;;;;;;10.57;5.32;;;16.30;99.90;;;;;;4969162;28;20042;-90
2022/08/22 01:29:11;;;;;;;11.40;5.43;;;16.30;99.90;;;;;;4950162;28;20047;-90
2022/08/22 01:31:43;;;;;;;11.52;5.75;;;16.20;99.90;;;;;;4953792;28;20062;-91
2022/08/22 01:34:39;;;;;;;10.63;5.40;;;16.30;99.90;;;;;;4967901;28;20115;-91
2022/08/22 01:37:40;;;;;;;11.70;5.25;;;16.30;99.90;;;;;;4968091;28;20100;-90
2022/08/22 01:40:15;;;;;;;;;;;16.20;99.90;;;;;;4965354;28;20049;-90
2022/08/22 01:43:07;;;;;;;11.65;5.05;;;16.10;99.90;;;;;;4952300;28;19965;-90
2022/08/22 01:45:57;;;;;;;9.40;5.57;;;16.10;99.90;;;;;;4952076;28;20065;-89
2022/08/22 01:48:48;;;;;;;9.20;5.78;;;16.10;99.90;;;;;;4967863;28;20420;-91
2022/08/22 01:51:20;;;;;;;11.50;6.03;;;16.20;99.90;;;;;;4966161;28;20066;-89
2022/08/22 01:54:19;;;;;;;11.88;6.00;;;16.10;99.90;;;;;;4968080;28;20395;-89
2022/08/22 01:56:48;;;;;;;11.50;5.78;;;16.10;99.90;;;;;;4966084;28;20039;-90
2022/08/22 01:59:23;;;;;;;11.55;5.78;;;16.10;99.90;;;;;;4968873;28;20097;-89
2022/08/22 02:01:50;;;;;;;10.55;5.95;;;16.10;99.90;;;;;;4951403;28;20393;-90
2022/08/22 02:04:36;;;;;;;10.80;5.38;;;16.10;99.90;;;;;;4968347;28;20454;-89
2022/08/22 02:07:13;;;;;;;11.25;6.45;;;16.10;99.90;;;;;;4950867;28;20050;-89
2022/08/22 02:09:41;;;;;;;12.73;6.07;;;16.00;99.90;;;;;;4967409;28;20059;-89
2022/08/22 02:12:19;;;;;;;10.05;5.53;;;16.10;99.90;;;;;;4969849;28;20121;-89
2022/08/22 02:15:01;;;;;;;12.55;6.22;;;16.00;99.90;;;;;;4964778;28;20059;-90
2022/08/22 02:17:34;;;;;;;11.63;6.47;;;16.00;99.90;;;;;;4971757;28;20106;-89
2022/08/22 02:20:22;;;;;;;10.63;5.80;;;16.00;99.90;;;;;;4971776;28;20130;-90
2022/08/22 02:23:25;;;;;;;11.40;6.15;;;16.00;99.90;;;;;;4971444;28;20158;-89
2022/08/22 02:25:54;;;;;;;9.75;5.82;;;16.00;99.90;;;;;;4967833;28;20050;-89
2022/08/22 02:28:38;;;;;;;10.90;5.75;;;16.00;99.90;;;;;;4968299;28;20042;-90
2022/08/22 02:31:38;;;;;;;9.63;6.10;;;16.10;99.90;;;;;;4948957;28;20377;-89
2022/08/22 02:34:25;;;;;;;10.40;5.60;;;16.10;99.90;;;;;;4966403;28;20090;-89
2022/08/22 02:37:16;;;;;;;10.85;5.50;;;16.10;99.90;;;;;;4963635;28;20043;-89
2022/08/22 02:40:05;;;;;;;11.25;5.90;;;16.10;99.90;;;;;;4951669;28;20047;-90
2022/08/22 02:42:48;;;;;;;10.38;5.95;;;16.10;99.90;;;;;;4965566;28;20217;-90
2022/08/22 02:45:23;;;;;;;11.35;6.30;;;16.00;99.90;;;;;;4963474;28;20054;-88
2022/08/22 02:48:10;;;;;;;10.95;6.13;;;16.00;99.90;;;;;;4968792;28;20054;-91
2022/08/22 02:50:50;;;;;;;12.32;6.35;;;16.00;99.90;;;;;;4949740;28;20097;-90
2022/08/22 02:53:49;;;;;;;10.82;6.20;;;15.90;99.90;;;;;;4963713;28;20051;-89
2022/08/22 02:56:30;;;;;;;11.07;5.95;;;15.90;99.90;;;;;;4951125;28;20043;-90
2022/08/22 02:59:22;;;;;;;10.15;5.60;;;15.90;99.90;;;;;;4950461;28;20514;-89
2022/08/22 03:01:47;;;;;;;11.07;5.35;;;15.90;99.90;;;;;;4966221;28;20046;-89
2022/08/22 03:04:46;;;;;;;10.73;5.93;;;15.90;99.90;;;;;;4968000;28;20047;-89
2022/08/22 03:07:21;;;;;;;11.63;6.15;;;15.90;99.90;;;;;;4962250;28;20461;-89
2022/08/22 03:10:24;;;;;;;12.27;6.40;;;15.90;99.90;;;;;;4950561;28;20130;-90
2022/08/22 03:13:17;;;;;;;11.80;6.13;;;15.90;99.90;;;;;;4950630;28;20043;-89
2022/08/22 03:15:51;;;;;;;11.20;6.22;;;16.00;99.90;;;;;;4982687;28;20407;-89
2022/08/22 03:19:03;;;;;;;13.50;6.50;;;16.00;99.90;;;;;;4954147;28;20112;-89
2022/08/22 03:21:33;;;;;;;12.70;5.97;;;16.00;99.90;;;;;;4969768;28;20050;-90
2022/08/22 03:24:18;;;;;;;12.00;6.20;;;15.90;99.90;;;;;;4987592;28;20054;-90
2022/08/22 03:27:00;;;;;;;9.48;5.30;;;15.90;99.90;;;;;;4940534;28;20054;-90
2022/08/22 03:29:34;;;;;;;11.60;5.85;;;15.90;99.90;;;;;;4953473;28;20487;-89
2022/08/22 03:32:06;;;;;;;12.45;6.68;;;15.90;99.90;;;;;;4984029;28;20034;-90
2022/08/22 03:34:32;;;;;;;11.15;6.30;;;15.90;99.90;;;;;;4969141;28;20054;-90
2022/08/22 03:37:05;;;;;;;10.27;5.88;;;15.90;99.90;;;;;;4952574;28;20496;-89
2022/08/22 03:39:37;;;;;;;11.40;6.00;;;15.80;99.90;;;;;;4969775;28;20452;-89
2022/08/22 03:42:34;;;;;;;11.10;6.90;;;15.80;99.90;;;;;;4953824;28;20438;-90
2022/08/22 03:45:37;;;;;;;10.93;6.03;;;15.80;99.90;;;;;;4985919;28;20078;-88
2022/08/22 03:48:12;;;;;;;10.85;6.68;;;15.80;99.90;;;;;;4910259;29;20118;-90
2022/08/22 03:51:05;;;;;;;11.35;6.47;;;15.80;99.90;;;;;;4926883;29;20099;-89
2022/08/22 03:54:08;;;;;;;10.43;5.82;;;15.70;99.90;;;;;;4926711;29;20123;-89
2022/08/22 03:56:39;;;;;;;12.60;7.05;;;15.70;99.90;;;;;;4889062;29;20063;-89
2022/08/22 03:59:11;;;;;;;10.80;6.45;;;15.70;99.90;;;;;;4887862;29;20048;-90
2022/08/22 04:01:48;;;;;;;11.05;6.35;;;15.70;99.90;;;;;;4888960;29;20064;-89
2022/08/22 04:04:38;;;;;;;10.50;6.50;;;15.70;99.90;;;;;;4885264;29;20071;-90
2022/08/22 04:07:37;;;;;;;11.27;6.60;;;15.70;99.90;;;;;;4887783;29;20136;-89
2022/08/22 04:10:30;;;;;;;10.70;7.15;;;15.60;99.90;;;;;;4887727;29;20056;-90
2022/08/22 04:13:33;;;;;;;10.63;7.05;;;15.60;99.90;;;;;;4872743;29;20159;-89
2022/08/22 04:16:07;;;;;;;12.18;7.63;;;15.60;99.90;;;;;;4857050;29;20107;-89
2022/08/22 04:18:52;;;;;;;12.20;6.72;;;15.60;99.90;;;;;;4872895;29;20056;-89
2022/08/22 04:21:48;;;;;;;12.48;7.20;;;15.60;99.90;;;;;;4876182;29;20059;-89
2022/08/22 04:24:45;;;;;;;13.80;7.53;;;15.60;99.90;;;;;;4876670;29;20469;-89
2022/08/22 04:27:28;;;;;;;11.73;6.85;;;15.70;99.90;;;;;;4891420;29;20429;-89
2022/08/22 04:29:58;;;;;;;11.27;7.10;;;15.70;99.90;;;;;;4891194;29;20107;-90
2022/08/22 04:32:42;;;;;;;11.25;6.80;;;15.70;99.90;;;;;;4929119;28;20050;-90
2022/08/22 04:35:16;;;;;;;13.25;6.80;;;15.70;99.90;;;;;;4949527;28;20043;-90
2022/08/22 04:37:57;;;;;;;12.68;6.50;;;15.80;99.90;;;;;;4968220;28;20046;-91
2022/08/22 04:40:47;;;;;;;15.23;7.72;;;15.80;99.90;;;;;;4967705;28;20054;-89
2022/08/22 04:43:40;;;;;;;12.85;7.47;;;15.80;99.90;;;;;;4989062;28;20130;-88
2022/08/22 04:46:43;;;;;;;13.48;7.90;;;15.80;99.90;;;;;;4971256;28;20133;-87
2022/08/22 04:49:28;;;;;;;12.73;7.38;;;15.80;99.90;;;;;;4941369;28;20200;-88
2022/08/22 04:52:05;;;;;;;12.18;6.95;;;15.80;99.90;;;;;;4988251;28;20045;-89
2022/08/22 04:55:02;;;;;;;10.10;6.60;;;15.80;99.90;;;;;;4988914;28;20149;-90
2022/08/22 04:57:56;;;;;;;12.55;7.18;;;15.90;99.90;;;;;;4973358;28;20093;-88
2022/08/22 05:00:22;;;;;;;13.98;7.15;;;15.90;99.90;;;;;;4972352;28;20049;-89
2022/08/22 05:02:51;;;;;;;14.10;7.70;;;16.00;99.90;;;;;;4972645;28;20497;-89
2022/08/22 05:05:22;;;;;;;13.25;7.68;;;16.00;99.90;;;;;;4987087;28;20046;-89
2022/08/22 05:07:51;;;;;;;;;;;16.00;99.90;;;;;;4989214;28;20057;-90
2022/08/22 05:10:24;;;;;;;12.35;7.35;;;16.00;99.90;;;;;;4970696;28;19932;-91
2022/08/22 05:13:25;;;;;;;12.40;6.78;;;16.00;99.90;;;;;;4969566;28;20088;-88
2022/08/22 05:15:57;;;;;;;14.48;7.38;;;16.10;99.90;;;;;;4907060;29;20073;-91
2022/08/22 05:18:27;;;;;;;9.93;7.00;;;16.20;99.90;;;;;;4891382;29;20107;-89
2022/08/22 05:20:55;;;;;;;12.77;7.32;;;16.20;99.90;;;;;;4889174;29;20060;-90
2022/08/22 05:23:34;;;;;;;11.85;6.57;;;16.30;99.90;;;;;;4908707;29;20060;-90
2022/08/22 05:26:03;;;;;;;13.07;6.75;;;16.30;99.90;;;;;;4907300;29;20044;-90
2022/08/22 05:28:37;;;;;;;13.55;7.00;;;16.40;99.90;;;;;;4909514;29;20386;-90
2022/08/22 05:31:07;;;;;;;12.68;6.65;;;16.40;99.90;;;;;;4879137;29;20052;-90
2022/08/22 05:33:40;;;;;;;14.95;6.90;;;16.40;99.90;;;;;;4886465;29;20052;-90
2022/08/22 05:36:14;;;;;;;13.23;7.03;;;16.50;99.90;;;;;;4894908;29;20462;-89
2022/08/22 05:38:46;;;;;;;12.95;6.80;;;16.50;99.90;;;;;;4900849;29;20386;-91
2022/08/22 05:41:18;;;;;;;11.75;6.28;;;16.60;99.90;;;;;;4894765;29;20067;-90
2022/08/22 05:43:47;;;;;;;12.35;6.95;;;16.60;99.90;;;;;;4893532;29;20043;-90
2022/08/22 05:46:22;;;;;;;13.68;7.07;;;16.60;99.90;;;;;;4889703;29;20437;-89
2022/08/22 05:48:58;;;;;;;11.77;6.57;;;16.60;99.90;;;;;;4908327;29;20550;-90
2022/08/22 05:51:43;;;;;;;13.20;7.00;;;16.60;99.90;;;;;;4894846;29;20393;-89
2022/08/22 05:54:14;;;;;;;13.15;7.13;;;16.70;99.90;;;;;;4947037;28;20055;-90
2022/08/22 05:56:46;;;;;;;12.50;6.43;;;16.70;99.90;;;;;;4929298;29;20039;-89
2022/08/22 05:59:30;;;;;;;11.50;6.57;;;16.70;99.90;;;;;;4948985;29;20082;-90
2022/08/22 06:02:08;;;;;;;12.88;6.85;;;16.70;99.90;;;;;;4944952;29;20066;-89
2022/08/22 06:04:46;;;;;;;11.88;6.85;;;16.80;99.90;;;;;;4948419;29;20074;-90
2022/08/22 06:07:33;;;;;;;12.48;7.10;;;16.80;99.90;;;;;;4945759;28;20051;-87
2022/08/22 06:10:25;;;;;;;12.23;6.63;;;16.80;99.90;;;;;;4928971;29;20468;-86
2022/08/22 06:13:08;;;;;;;11.60;7.15;;;16.80;99.90;;;;;;4942193;29;20051;-87
2022/08/22 06:16:12;;;;;;;12.27;6.05;;;16.90;99.90;;;;;;4942031;28;20054;-87
2022/08/22 06:18:41;;;;;;;11.30;6.97;;;17.00;99.90;;;;;;4935031;28;20109;-87
2022/08/22 06:21:11;;;;;;;12.10;6.47;;;17.00;99.90;;;;;;4966753;28;20050;-89
2022/08/22 06:23:44;;;;;;;12.37;7.07;;;17.00;99.90;;;;;;4964469;28;20096;-88
2022/08/22 06:26:11;;;;;;;11.95;6.57;;;17.00;99.90;;;;;;4951861;28;20062;-87
2022/08/22 06:28:43;;;;;;;11.52;6.78;;;17.10;99.90;;;;;;4967000;28;20181;-88
2022/08/22 06:31:27;;;;;;;11.63;6.50;;;17.10;99.90;;;;;;4963967;28;20503;-87
2022/08/22 06:34:14;;;;;;;10.88;7.00;;;17.10;99.90;;;;;;4948319;28;20121;-87
2022/08/22 06:36:45;;;;;;;12.32;6.80;;;17.20;99.90;;;;;;4966041;28;20106;-86
2022/08/22 06:39:16;;;;;;;13.38;6.57;;;17.20;99.90;;;;;;4966751;28;20122;-88
2022/08/22 06:41:51;;;;;;;12.65;6.32;;;17.20;99.90;;;;;;4951777;28;20051;-86
2022/08/22 06:44:25;;;;;;;13.93;6.72;;;17.30;99.90;;;;;;4947473;28;20043;-87
2022/08/22 06:46:54;;;;;;;14.43;6.75;;;17.30;99.90;;;;;;4961625;28;20058;-87
2022/08/22 06:49:22;;;;;;;13.02;7.05;;;17.30;99.90;;;;;;4964384;28;20039;-87
2022/08/22 06:51:48;;;;;;;12.18;6.80;;;17.40;99.90;;;;;;4966002;28;20424;-87
2022/08/22 06:54:20;;;;;;;13.40;6.53;;;17.40;99.90;;;;;;4962769;28;20042;-85
2022/08/22 06:56:48;;;;;;;13.70;6.90;;;17.50;99.90;;;;;;4949173;28;20047;-86
2022/08/22 06:59:19;;;;;;;13.38;6.78;;;17.50;99.90;;;;;;4962154;28;20043;-86
2022/08/22 07:01:54;;;;;;;13.98;6.63;;;17.50;99.90;;;;;;4949260;28;20047;-85
2022/08/22 07:04:25;;;;;;;13.90;6.65;;;17.60;99.90;;;;;;4964776;28;20050;-87
2022/08/22 07:06:52;;;;;;;11.80;6.60;;;17.60;99.90;;;;;;4947517;28;20038;-84
2022/08/22 07:09:34;;;;;;;11.25;6.07;;;17.60;99.90;;;;;;4967623;28;20046;-84
2022/08/22 07:12:09;;;;;;;11.43;6.25;;;17.60;99.90;;;;;;4981948;28;20047;-86
2022/08/22 07:14:42;;;;;;;11.48;5.85;;;17.70;99.90;;;;;;4950272;28;20059;-86
2022/08/22 07:17:15;;;;;;;9.77;5.70;;;17.70;99.90;;;;;;4949718;28;20050;-85
2022/08/22 07:19:48;;;;;;;9.82;5.53;;;17.80;99.90;;;;;;4963866;28;20050;-84
2022/08/22 07:22:20;;;;;;;10.85;5.97;;;17.90;99.90;;;;;;4964965;28;20042;-86
2022/08/22 07:25:01;;;;;;;12.70;5.95;;;17.90;99.90;;;;;;4965925;28;20138;-87
2022/08/22 07:27:41;;;;;;;12.18;5.80;;;18.00;99.90;;;;;;4949050;28;20050;-85
2022/08/22 07:30:10;;;;;;;11.95;5.38;;;18.00;99.90;;;;;;4964369;28;20050;-87
2022/08/22 07:32:50;;;;;;;13.90;5.78;;;18.10;99.90;;;;;;4946691;28;20048;-86
2022/08/22 07:35:24;;;;;;;12.38;5.78;;;18.20;99.90;;;;;;4966435;28;20137;-86
2022/08/22 07:38:15;;;;;;;10.75;5.18;;;18.30;99.90;;;;;;4966374;28;20407;-86
2022/08/22 07:40:49;;;;;;;12.27;5.45;;;18.30;99.90;;;;;;4965847;28;20051;-86
2022/08/22 07:43:37;;;;;;;13.27;5.30;;;18.40;99.90;;;;;;4944522;28;20130;-87
2022/08/22 07:46:35;;;;;;;14.05;5.30;;;18.50;99.90;;;;;;4964119;28;20483;-88
2022/08/22 07:49:09;;;;;;;15.10;5.38;;;18.50;99.90;;;;;;4959984;28;20101;-87
2022/08/22 07:52:02;;;;;;;12.25;5.50;;;18.60;99.90;;;;;;4970054;28;20443;-92
2022/08/22 07:54:35;;;;;;;11.15;4.63;;;18.70;99.90;;;;;;4971309;28;20047;-95
2022/08/22 07:57:27;;;;;;;13.25;5.07;;;18.80;99.90;;;;;;4965955;28;20101;-92
2022/08/22 07:59:56;;;;;;;11.55;5.43;;;18.80;99.90;;;;;;4957225;28;20055;-92
2022/08/22 08:02:23;;;;;;;10.77;4.55;;;18.90;99.90;;;;;;4968155;28;20518;-91
2022/08/22 08:04:52;;;;;;;11.85;4.90;;;19.00;99.90;;;;;;4949968;28;20038;-90
2022/08/22 08:07:21;;;;;;;11.52;4.35;;;19.10;99.90;;;;;;4968209;28;20047;-93
2022/08/22 08:09:55;;;;;;;13.15;5.15;;;19.10;99.90;;;;;;4947978;28;20459;-90
2022/08/22 08:12:30;;;;;;;14.60;5.18;;;19.10;99.90;;;;;;4954393;28;20039;-94
2022/08/22 08:14:56;;;;;;;11.98;4.32;;;19.10;99.90;;;;;;4951070;28;20061;-93
2022/08/22 08:17:27;;;;;;;9.18;4.18;;;19.10;99.90;;;;;;4968514;28;20047;-95
2022/08/22 08:19:55;;;;;;;10.65;4.05;;;19.20;99.90;;;;;;4968440;28;20082;-96
2022/08/22 08:22:24;;;;;;;11.73;4.30;;;19.20;99.90;;;;;;4968447;28;20055;-90
2022/08/22 08:24:53;;;;;;;12.57;4.35;;;19.20;99.90;;;;;;4952121;28;20074;-96
2022/08/22 08:30:18;;;;;;;9.88;4.18;;;19.30;99.90;;;;;;4965701;28;20062;-92
2022/08/22 08:32:54;;;;;;;13.30;4.85;;;19.40;99.90;;;;;;4951646;28;20038;-95
2022/08/22 08:35:30;;;;;;;11.30;3.95;;;19.40;99.90;;;;;;4976834;28;20038;-96
2022/08/22 08:38:02;;;;;;;10.52;3.80;;;19.40;99.90;;;;;;4968234;28;20442;-93
2022/08/22 08:40:30;;;;;;;12.50;3.72;;;19.40;99.90;;;;;;4954781;28;20522;-94
2022/08/22 08:43:33;;;;;;;10.15;3.42;;;19.50;99.90;;;;;;4967973;28;20455;-94
2022/08/22 08:46:13;;;;;;;10.70;3.83;;;19.50;99.90;;;;;;4967262;28;20046;-95
2022/08/22 08:48:59;;;;;;;11.85;4.40;;;19.50;99.90;;;;;;4969791;28;20047;-94
2022/08/22 08:51:43;;;;;;;11.48;3.83;;;19.60;99.90;;;;;;4966528;28;20070;-92
2022/08/22 08:54:09;;;;;;;14.68;5.32;;;19.70;99.90;;;;;;4963879;28;20399;-93
2022/08/22 08:56:48;;;;;;;10.20;4.18;;;19.70;99.90;;;;;;4966140;28;20045;-91
2022/08/22 08:59:24;;;;;;;10.27;3.60;;;19.70;99.90;;;;;;4965031;28;20077;-91
2022/08/22 09:02:09;;;;;;;11.52;4.47;;;19.80;99.90;;;;;;4949627;28;20117;-92
2022/08/22 09:05:03;;;;;;;12.23;4.05;;;19.90;99.90;;;;;;4966188;28;20141;-92
2022/08/22 09:07:54;;;;;;;11.63;3.88;;;19.90;99.90;;;;;;4963225;28;20046;-94
2022/08/22 09:10:40;;;;;;;10.70;4.57;;;20.00;99.90;;;;;;4965619;28;20046;-94
2022/08/22 09:13:16;;;;;;;8.77;4.30;;;20.10;99.90;;;;;;4958828;28;20141;-91
2022/08/22 09:15:56;;;;;;;14.75;4.97;;;20.10;99.90;;;;;;4983404;28;20141;-89
2022/08/22 09:19:13;;;;;;;9.43;4.18;;;20.20;99.90;;;;;;4983791;28;20055;-93
2022/08/22 09:22:06;;;;;;;11.35;4.10;;;20.20;99.90;;;;;;4970856;28;20057;-91
2022/08/22 09:25:14;;;;;;;11.88;4.32;;;20.20;99.90;;;;;;4968208;28;20050;-92
2022/08/22 09:27:56;;;;;;;11.30;3.95;;;20.20;99.90;;;;;;4892916;29;20473;-90
2022/08/22 09:30:24;;;;;;;11.02;4.30;;;20.30;99.90;;;;;;4913743;29;20036;-90
2022/08/22 09:33:03;;;;;;;12.48;3.95;;;20.30;99.90;;;;;;4928992;29;20127;-89
2022/08/22 09:35:52;;;;;;;10.00;3.70;;;20.50;99.90;;;;;;4930075;29;20055;-92
2022/08/22 09:38:44;;;;;;;11.85;4.00;;;20.50;99.90;;;;;;4914444;29;20083;-91
2022/08/22 09:41:37;;;;;;;12.88;3.83;;;20.60;99.90;;;;;;4930162;29;20593;-91
2022/08/22 09:44:29;;;;;;;11.48;4.10;;;20.60;99.90;;;;;;4903516;29;20068;-91
2022/08/22 09:47:22;;;;;;;10.63;3.60;;;20.70;99.90;;;;;;4915047;29;20083;-92
2022/08/22 09:50:09;;;;;;;11.02;3.55;;;20.80;99.90;;;;;;4915470;29;20051;-92
2022/08/22 09:53:16;;;;;;;11.43;3.28;;;20.80;99.90;;;;;;4928452;29;20051;-91
2022/08/22 09:55:53;;;;;;;10.00;3.35;;;20.90;99.90;;;;;;4898373;29;20102;-90
2022/08/22 09:58:46;;;;;;;8.95;2.97;;;20.90;99.90;;;;;;4896800;29;20059;-90
2022/08/22 10:01:26;;;;;;;10.90;3.15;;;21.10;99.90;;;;;;4922599;29;20107;-91
2022/08/22 10:04:17;;;;;;;10.95;3.88;;;21.10;99.90;;;;;;4940270;28;20126;-91
2022/08/22 10:07:05;;;;;;;11.10;3.40;;;21.20;99.90;;;;;;4974264;28;20053;-92
2022/08/22 10:10:08;;;;;;;9.25;3.55;;;21.40;99.90;;;;;;4957390;28;20077;-92
2022/08/22 10:12:59;;;;;;;8.93;2.92;;;21.50;99.90;;;;;;4958402;28;20085;-89
2022/08/22 10:15:31;;;;;;;;;;;21.60;99.90;;;;;;4974942;28;20098;-91
2022/08/22 10:18:17;;;;;;;10.30;3.38;;;21.60;99.90;;;;;;4973425;28;20010;-92
2022/08/22 10:21:14;;;;;;;11.90;3.92;;;21.70;99.90;;;;;;4989901;28;20113;-90
2022/08/22 10:24:13;;;;;;;9.05;3.03;;;21.80;99.90;;;;;;4952811;28;20038;-94
2022/08/22 10:26:48;;;;;;;10.13;3.42;;;21.90;99.90;;;;;;4972954;28;20038;-93
2022/08/22 10:29:34;;;;;;;9.18;3.13;;;22.00;99.90;;;;;;4958296;28;20507;-89
2022/08/22 10:32:29;;;;;;;10.50;3.53;;;22.00;99.90;;;;;;4957196;28;20042;-91
2022/08/22 10:35:00;;;;;;;10.05;3.38;;;22.00;99.90;;;;;;4990406;28;20399;-88
2022/08/22 10:37:39;;;;;;;10.45;3.53;;;22.00;99.90;;;;;;4986330;28;20045;-88
2022/08/22 10:40:20;;;;;;;10.07;3.20;;;22.10;99.90;;;;;;4952680;28;20065;-90
2022/08/22 10:43:08;;;;;;;10.40;3.25;;;22.10;99.90;;;;;;4969131;28;20051;-90
2022/08/22 10:45:38;;;;;;;11.50;3.20;;;22.20;99.90;;;;;;4964696;28;20502;-92
2022/08/22 10:48:03;;;;;;;10.73;3.35;;;22.20;99.90;;;;;;4956283;28;20085;-88
2022/08/22 10:50:35;;;;;;;10.65;3.08;;;22.30;99.90;;;;;;4973985;28;20174;-88
2022/08/22 10:53:32;;;;;;;10.95;2.83;;;22.40;99.90;;;;;;4973525;28;20670;-89
2022/08/22 10:56:17;;;;;;;10.52;2.80;;;22.40;99.90;;;;;;4988031;28;20045;-87
2022/08/22 10:59:15;;;;;;;9.13;2.90;;;22.60;99.90;;;;;;4957346;28;20049;-86
2022/08/22 11:02:18;;;;;;;8.00;3.10;;;22.60;99.90;;;;;;4975386;28;20491;-87
2022/08/22 11:05:04;;;;;;;8.23;2.30;;;22.80;99.90;;;;;;4989985;28;20116;-87
2022/08/22 11:07:42;;;;;;;9.18;2.63;;;22.80;99.90;;;;;;4973611;28;20108;-92
2022/08/22 11:10:31;;;;;;;9.65;3.08;;;22.80;99.90;;;;;;4991595;28;20143;-88
2022/08/22 11:13:21;;;;;;;9.30;2.63;;;22.90;99.90;;;;;;4988019;28;20058;-89
2022/08/22 11:15:59;;;;;;;8.65;2.85;;;22.80;99.90;;;;;;4955013;28;20058;-86
2022/08/22 11:19:08;;;;;;;8.27;2.25;;;22.90;99.90;;;;;;4991198;28;20050;-86
2022/08/22 11:21:49;;;;;;;7.85;2.38;;;22.80;99.90;;;;;;4973547;28;20043;-88
2022/08/22 11:24:44;;;;;;;8.80;2.70;;;22.80;99.90;;;;;;4990887;28;20687;-88
2022/08/22 11:27:49;;;;;;;10.40;2.50;;;22.80;99.90;;;;;;4990237;28;20105;-88
2022/08/22 11:30:21;;;;;;;8.77;2.70;;;22.70;99.90;;;;;;4989307;28;20050;-86
2022/08/22 11:33:12;;;;;;;8.57;2.40;;;22.80;99.90;;;;;;4990311;28;20065;-88
2022/08/22 11:36:09;;;;;;;8.35;2.80;;;22.80;99.90;;;;;;4973573;28;20441;-88
2022/08/22 11:38:52;;;;;;;8.32;2.33;;;22.90;99.90;;;;;;4990478;28;20114;-87
2022/08/22 11:41:24;;;;;;;9.55;3.03;;;23.00;99.90;;;;;;4972899;28;20082;-87
2022/08/22 11:43:58;;;;;;;8.95;2.70;;;23.20;99.90;;;;;;4988807;28;20046;-85
2022/08/22 11:46:48;;;;;;;8.88;3.00;;;23.30;99.90;;;;;;4972644;28;20073;-89
2022/08/22 11:49:35;;;;;;;9.50;2.47;;;23.50;99.90;;;;;;4972962;28;20054;-86
2022/08/22 11:52:19;;;;;;;9.20;2.90;;;23.60;99.90;;;;;;4988860;28;20047;-88
2022/08/22 11:55:04;;;;;;;9.75;2.60;;;23.70;99.90;;;;;;4972155;28;20050;-88
2022/08/22 11:57:48;;;;;;;8.63;2.65;;;23.70;99.90;;;;;;4972649;28;20459;-87
2022/08/22 12:00:25;;;;;;;7.28;2.35;;;23.70;99.90;;;;;;4971604;28;20050;-87
2022/08/22 12:03:22;;;;;;;7.32;2.50;;;23.70;99.90;;;;;;4988280;28;20089;-87
2022/08/22 12:05:55;;;;;;;8.85;2.70;;;23.50;99.90;;;;;;4955948;28;20491;-86
2022/08/22 12:08:34;;;;;;;8.60;2.65;;;23.50;99.90;;;;;;4972912;28;20494;-88
2022/08/22 12:11:27;;;;;;;8.93;2.95;;;23.40;99.90;;;;;;4988616;28;20051;-88
2022/08/22 12:13:59;;;;;;;10.00;3.05;;;23.40;99.90;;;;;;4970605;28;20047;-90
2022/08/22 12:16:57;;;;;;;9.48;2.70;;;23.50;99.90;;;;;;4956989;28;20406;-87
2022/08/22 12:19:41;;;;;;;9.75;2.90;;;23.50;99.90;;;;;;4955631;28;20380;-86
2022/08/22 12:22:34;;;;;;;8.57;2.70;;;23.60;99.90;;;;;;4971949;28;20088;-88
2022/08/22 12:25:37;;;;;;;9.18;3.05;;;23.60;99.90;;;;;;4970992;28;20046;-87
2022/08/22 12:28:23;;;;;;;8.48;2.85;;;23.50;99.90;;;;;;4971840;28;20046;-88
2022/08/22 12:31:19;;;;;;;9.82;3.50;;;23.50;99.90;;;;;;4971186;28;20058;-86
2022/08/22 12:34:01;;;;;;;10.55;2.90;;;23.50;99.90;;;;;;4952257;28;20039;-89
2022/08/22 12:36:56;;;;;;;9.45;2.70;;;23.40;99.90;;;;;;4953256;28;20047;-88
2022/08/22 12:39:34;;;;;;;7.20;2.95;;;23.30;99.90;;;;;;4952842;28;20051;-90
2022/08/22 12:42:21;;;;;;;8.68;3.08;;;23.40;99.90;;;;;;4952295;28;20054;-88
2022/08/22 12:45:16;;;;;;;8.25;2.58;;;23.40;99.90;;;;;;4968713;28;20054;-91
2022/08/22 12:48:07;;;;;;;9.70;3.20;;;23.40;99.90;;;;;;4953145;28;20055;-87
2022/08/22 12:50:53;;;;;;;;;;;23.40;99.90;;;;;;4970974;28;20042;-88
2022/08/22 12:53:22;;;;;;;9.20;2.90;;;23.30;99.90;;;;;;4953343;28;19922;-86
2022/08/22 12:56:12;;;;;;;8.85;3.15;;;23.30;99.90;;;;;;4969030;28;20043;-88
2022/08/22 12:59:06;;;;;;;8.45;2.80;;;23.40;99.90;;;;;;4969128;28;20133;-87
2022/08/22 13:01:41;;;;;;;9.15;3.10;;;23.40;99.90;;;;;;4970375;28;20042;-88
2022/08/22 13:04:25;;;;;;;9.57;2.80;;;23.40;99.90;;;;;;4966136;28;20046;-89
2022/08/22 13:06:53;;;;;;;10.68;2.80;;;23.30;99.90;;;;;;4992441;28;20105;-87
2022/08/22 13:09:37;;;;;;;11.13;3.17;;;23.30;99.90;;;;;;4975629;28;20050;-84
2022/08/22 13:12:16;;;;;;;10.90;3.35;;;23.30;99.90;;;;;;4959093;28;20046;-87
2022/08/22 13:14:45;;;;;;;10.38;3.10;;;23.40;99.90;;;;;;4976080;28;20399;-87
2022/08/22 13:17:16;;;;;;;8.88;3.17;;;23.50;99.90;;;;;;4959298;28;20133;-88
2022/08/22 13:19:54;;;;;;;8.60;2.95;;;23.60;99.90;;;;;;4959082;28;20049;-86
2022/08/22 13:22:25;;;;;;;9.65;3.13;;;23.60;99.90;;;;;;4993173;28;20050;-86
2022/08/22 13:25:14;;;;;;;8.95;2.95;;;23.70;99.90;;;;;;4958012;28;20096;-86
2022/08/22 13:27:44;;;;;;;8.60;2.92;;;23.80;99.90;;;;;;4975919;28;20368;-87
2022/08/22 13:30:28;;;;;;;8.57;3.40;;;23.80;99.90;;;;;;4975268;28;20089;-87
2022/08/22 13:33:14;;;;;;;10.57;3.67;;;23.80;99.90;;;;;;4974601;28;20076;-87
2022/08/22 13:35:52;;;;;;;7.82;2.97;;;23.90;99.90;;;;;;4973811;28;20058;-86
2022/08/22 13:38:37;;;;;;;9.93;3.50;;;23.90;99.90;;;;;;4959088;28;20046;-86
2022/08/22 13:41:03;;;;;;;8.52;2.90;;;23.80;99.90;;;;;;4974514;28;20469;-87
2022/08/22 13:43:51;;;;;;;8.15;3.22;;;23.80;99.90;;;;;;4959168;28;20534;-87
2022/08/22 13:46:24;;;;;;;9.75;2.95;;;23.90;99.90;;;;;;4975496;28;20068;-87
2022/08/22 13:48:53;;;;;;;9.40;3.50;;;24.00;99.90;;;;;;4974407;28;20050;-87
2022/08/22 13:51:25;;;;;;;9.98;3.40;;;24.10;99.90;;;;;;4974485;28;20050;-87
2022/08/22 13:54:14;;;;;;;9.73;3.25;;;24.10;99.90;;;;;;4974397;28;20185;-86
2022/08/22 13:57:06;;;;;;;9.63;3.25;;;24.20;99.90;;;;;;4960078;28;20085;-87
2022/08/22 13:59:53;;;;;;;10.88;3.60;;;24.20;99.90;;;;;;4975066;28;20057;-86